sensor_id;sensor_type;location;lat;lon;timestamp;temperature;humidity
24146;DHT22;12308;50.948;4.706;2022-10-26T00:00:41;14.30;99.90
24146;DHT22;12308;50.948;4.706;2022-10-26T00:03:07;14.30;99.90
24146;DHT22;12308;50.948;4.706;2022-10-26T00:05:33;14.20;99.90
24146;DHT22;12308;50.948;4.706;2022-10-26T00:07:59;14.20;99.90
24146;DHT22;12308;50.948;4.706;2022-10-26T00:10:26;14.20;99.90
24146;DHT22;12308;50.948;4.706;2022-10-26T00:12:51;14.20;99.90
24146;DHT22;12308;50.948;4.706;2022-10-26T00:15:18;14.20;99.90
24146;DHT22;12308;50.948;4.706;2022-10-26T00:17:44;14.20;99.90
24146;DHT22;12308;50.948;4.706;2022-10-26T00:20:10;14.20;99.90
24146;DHT22;12308;50.948;4.706;2022-10-26T00:22:36;14.20;99.90
24146;DHT22;12308;50.948;4.706;2022-10-26T00:25:02;14.20;99.90
24146;DHT22;12308;50.948;4.706;2022-10-26T00:27:28;14.20;99.90
24146;DHT22;12308;50.948;4.706;2022-10-26T00:29:53;14.30;99.90
24146;DHT22;12308;50.948;4.706;2022-10-26T00:32:19;14.20;99.90
24146;DHT22;12308;50.948;4.706;2022-10-26T00:34:44;14.30;99.90
24146;DHT22;12308;50.948;4.706;2022-10-26T00:37:10;14.30;99.90
24146;DHT22;12308;50.948;4.706;2022-10-26T00:39:36;14.30;99.90
24146;DHT22;12308;50.948;4.706;2022-10-26T00:42:01;14.30;99.90
24146;DHT22;12308;50.948;4.706;2022-10-26T00:47:17;14.30;99.90
24146;DHT22;12308;50.948;4.706;2022-10-26T00:49:44;14.40;99.90
24146;DHT22;12308;50.948;4.706;2022-10-26T00:52:13;14.40;99.90
24146;DHT22;12308;50.948;4.706;2022-10-26T00:54:40;14.40;99.90
24146;DHT22;12308;50.948;4.706;2022-10-26T00:57:05;14.40;99.90
24146;DHT22;12308;50.948;4.706;2022-10-26T00:59:31;14.50;99.90
24146;DHT22;12308;50.948;4.706;2022-10-26T01:01:57;14.50;99.90
24146;DHT22;12308;50.948;4.706;2022-10-26T01:04:23;14.50;99.90
24146;DHT22;12308;50.948;4.706;2022-10-26T01:06:50;14.40;99.90
24146;DHT22;12308;50.948;4.706;2022-10-26T01:09:17;14.40;99.90
24146;DHT22;12308;50.948;4.706;2022-10-26T01:11:43;14.50;99.90
24146;DHT22;12308;50.948;4.706;2022-10-26T01:14:10;14.50;99.90
24146;DHT22;12308;50.948;4.706;2022-10-26T01:33:33;14.70;99.90
24146;DHT22;12308;50.948;4.706;2022-10-26T01:35:54;14.70;99.90
24146;DHT22;12308;50.948;4.706;2022-10-26T01:38:55;14.80;99.90
24146;DHT22;12308;50.948;4.706;2022-10-26T01:44:26;14.70;99.90
24146;DHT22;12308;50.948;4.706;2022-10-26T01:46:54;14.70;99.90
24146;DHT22;12308;50.948;4.706;2022-10-26T01:49:25;14.60;99.90
24146;DHT22;12308;50.948;4.706;2022-10-26T01:51:52;14.60;99.90
24146;DHT22;12308;50.948;4.706;2022-10-26T01:54:18;14.60;99.90
24146;DHT22;12308;50.948;4.706;2022-10-26T01:56:52;14.60;99.90
24146;DHT22;12308;50.948;4.706;2022-10-26T02:04:40;14.50;99.90
24146;DHT22;12308;50.948;4.706;2022-10-26T02:07:33;14.60;99.90
24146;DHT22;12308;50.948;4.706;2022-10-26T02:10:36;14.60;99.90
24146;DHT22;12308;50.948;4.706;2022-10-26T02:13:20;14.60;99.90
24146;DHT22;12308;50.948;4.706;2022-10-26T02:15:55;14.50;99.90
24146;DHT22;12308;50.948;4.706;2022-10-26T02:20:55;14.60;99.90
24146;DHT22;12308;50.948;4.706;2022-10-26T02:23:24;14.60;99.90
24146;DHT22;12308;50.948;4.706;2022-10-26T02:25:55;14.60;99.90
24146;DHT22;12308;50.948;4.706;2022-10-26T02:28:28;14.60;99.90
24146;DHT22;12308;50.948;4.706;2022-10-26T02:30:57;14.60;99.90
24146;DHT22;12308;50.948;4.706;2022-10-26T02:33:25;14.50;99.90
24146;DHT22;12308;50.948;4.706;2022-10-26T02:35:54;14.50;99.90
24146;DHT22;12308;50.948;4.706;2022-10-26T02:38:23;14.50;99.90
24146;DHT22;12308;50.948;4.706;2022-10-26T02:40:51;14.50;99.90
24146;DHT22;12308;50.948;4.706;2022-10-26T02:43:18;14.40;99.90
24146;DHT22;12308;50.948;4.706;2022-10-26T02:45:56;14.40;99.90
24146;DHT22;12308;50.948;4.706;2022-10-26T02:48:24;14.50;99.90
24146;DHT22;12308;50.948;4.706;2022-10-26T02:51:04;14.50;99.90
24146;DHT22;12308;50.948;4.706;2022-10-26T02:53:45;14.50;99.90
24146;DHT22;12308;50.948;4.706;2022-10-26T02:56:27;14.50;99.90
24146;DHT22;12308;50.948;4.706;2022-10-26T02:58:58;14.50;99.90
24146;DHT22;12308;50.948;4.706;2022-10-26T03:01:26;14.50;99.90
24146;DHT22;12308;50.948;4.706;2022-10-26T03:03:56;14.50;99.90
24146;DHT22;12308;50.948;4.706;2022-10-26T03:06:23;14.50;99.90
24146;DHT22;12308;50.948;4.706;2022-10-26T03:08:49;14.60;99.90
24146;DHT22;12308;50.948;4.706;2022-10-26T03:11:15;14.60;99.90
24146;DHT22;12308;50.948;4.706;2022-10-26T03:13:41;14.70;99.90
24146;DHT22;12308;50.948;4.706;2022-10-26T03:16:07;14.70;99.90
24146;DHT22;12308;50.948;4.706;2022-10-26T03:18:33;14.80;99.90
24146;DHT22;12308;50.948;4.706;2022-10-26T03:20:58;14.90;99.90
24146;DHT22;12308;50.948;4.706;2022-10-26T03:23:24;14.90;99.90
24146;DHT22;12308;50.948;4.706;2022-10-26T03:25:50;14.90;99.90
24146;DHT22;12308;50.948;4.706;2022-10-26T03:28:16;14.90;99.90
24146;DHT22;12308;50.948;4.706;2022-10-26T03:30:41;14.90;99.90
24146;DHT22;12308;50.948;4.706;2022-10-26T03:33:07;14.90;99.90
24146;DHT22;12308;50.948;4.706;2022-10-26T03:35:33;15.00;99.90
24146;DHT22;12308;50.948;4.706;2022-10-26T03:37:58;15.00;99.90
24146;DHT22;12308;50.948;4.706;2022-10-26T03:40:24;15.00;99.90
24146;DHT22;12308;50.948;4.706;2022-10-26T03:42:50;14.90;99.90
24146;DHT22;12308;50.948;4.706;2022-10-26T03:45:15;14.90;99.90
24146;DHT22;12308;50.948;4.706;2022-10-26T03:47:45;14.90;99.90
24146;DHT22;12308;50.948;4.706;2022-10-26T03:50:13;14.90;99.90
24146;DHT22;12308;50.948;4.706;2022-10-26T03:52:40;14.90;99.90
24146;DHT22;12308;50.948;4.706;2022-10-26T03:55:06;15.00;99.90
24146;DHT22;12308;50.948;4.706;2022-10-26T03:57:32;15.00;99.90
24146;DHT22;12308;50.948;4.706;2022-10-26T03:59:58;15.00;99.90
24146;DHT22;12308;50.948;4.706;2022-10-26T04:02:23;15.00;99.90
24146;DHT22;12308;50.948;4.706;2022-10-26T04:04:49;15.10;99.90
24146;DHT22;12308;50.948;4.706;2022-10-26T04:07:15;15.10;99.90
24146;DHT22;12308;50.948;4.706;2022-10-26T04:09:40;15.10;99.90
24146;DHT22;12308;50.948;4.706;2022-10-26T04:12:06;15.10;99.90
24146;DHT22;12308;50.948;4.706;2022-10-26T04:14:32;15.10;99.90
24146;DHT22;12308;50.948;4.706;2022-10-26T04:16:57;15.20;99.90
24146;DHT22;12308;50.948;4.706;2022-10-26T04:19:23;15.30;99.90
24146;DHT22;12308;50.948;4.706;2022-10-26T04:21:50;15.20;99.90
24146;DHT22;12308;50.948;4.706;2022-10-26T04:24:16;15.20;99.90
24146;DHT22;12308;50.948;4.706;2022-10-26T04:26:42;15.20;99.90
24146;DHT22;12308;50.948;4.706;2022-10-26T04:29:09;15.20;99.90
24146;DHT22;12308;50.948;4.706;2022-10-26T04:31:35;15.30;99.90
24146;DHT22;12308;50.948;4.706;2022-10-26T04:34:01;15.40;99.90
24146;DHT22;12308;50.948;4.706;2022-10-26T04:36:26;15.40;99.90
24146;DHT22;12308;50.948;4.706;2022-10-26T04:38:52;15.40;99.90
24146;DHT22;12308;50.948;4.706;2022-10-26T04:41:18;15.40;99.90
24146;DHT22;12308;50.948;4.706;2022-10-26T04:43:43;15.30;99.90
24146;DHT22;12308;50.948;4.706;2022-10-26T04:46:09;15.30;99.90
24146;DHT22;12308;50.948;4.706;2022-10-26T04:48:34;15.30;99.90
24146;DHT22;12308;50.948;4.706;2022-10-26T04:51:00;15.40;99.90
24146;DHT22;12308;50.948;4.706;2022-10-26T04:53:26;15.40;99.90
24146;DHT22;12308;50.948;4.706;2022-10-26T04:55:57;15.40;99.90
24146;DHT22;12308;50.948;4.706;2022-10-26T04:58:22;15.50;99.90
24146;DHT22;12308;50.948;4.706;2022-10-26T05:00:48;15.50;99.90
24146;DHT22;12308;50.948;4.706;2022-10-26T05:03:13;15.50;99.90
24146;DHT22;12308;50.948;4.706;2022-10-26T05:05:39;15.50;99.90
24146;DHT22;12308;50.948;4.706;2022-10-26T05:08:05;15.50;99.90
24146;DHT22;12308;50.948;4.706;2022-10-26T05:10:31;15.60;99.90
24146;DHT22;12308;50.948;4.706;2022-10-26T05:12:58;15.60;99.90
24146;DHT22;12308;50.948;4.706;2022-10-26T05:15:25;15.60;99.90
24146;DHT22;12308;50.948;4.706;2022-10-26T05:18:08;15.80;99.90
24146;DHT22;12308;50.948;4.706;2022-10-26T05:20:35;15.70;99.90
24146;DHT22;12308;50.948;4.706;2022-10-26T05:23:03;15.70;99.90
24146;DHT22;12308;50.948;4.706;2022-10-26T05:25:31;15.80;99.90
24146;DHT22;12308;50.948;4.706;2022-10-26T05:27:59;15.80;99.90
24146;DHT22;12308;50.948;4.706;2022-10-26T05:30:26;15.80;99.90
24146;DHT22;12308;50.948;4.706;2022-10-26T05:32:54;15.90;99.90
24146;DHT22;12308;50.948;4.706;2022-10-26T05:35:20;15.90;99.90
24146;DHT22;12308;50.948;4.706;2022-10-26T05:37:45;15.90;99.90
24146;DHT22;12308;50.948;4.706;2022-10-26T05:40:11;16.00;99.90
24146;DHT22;12308;50.948;4.706;2022-10-26T05:42:37;16.10;99.90
24146;DHT22;12308;50.948;4.706;2022-10-26T05:45:03;16.10;99.90
24146;DHT22;12308;50.948;4.706;2022-10-26T05:47:28;16.00;99.90
24146;DHT22;12308;50.948;4.706;2022-10-26T05:49:54;16.00;99.90
24146;DHT22;12308;50.948;4.706;2022-10-26T05:52:19;15.90;99.90
24146;DHT22;12308;50.948;4.706;2022-10-26T05:54:45;16.00;99.90
24146;DHT22;12308;50.948;4.706;2022-10-26T05:57:11;16.00;99.90
24146;DHT22;12308;50.948;4.706;2022-10-26T05:59:37;15.90;99.90
24146;DHT22;12308;50.948;4.706;2022-10-26T06:04:47;15.90;99.90
24146;DHT22;12308;50.948;4.706;2022-10-26T06:07:15;15.80;99.90
24146;DHT22;12308;50.948;4.706;2022-10-26T06:09:41;15.80;99.90
24146;DHT22;12308;50.948;4.706;2022-10-26T06:12:08;15.70;99.90
24146;DHT22;12308;50.948;4.706;2022-10-26T06:14:35;15.60;99.90
24146;DHT22;12308;50.948;4.706;2022-10-26T06:20:22;15.60;99.90
24146;DHT22;12308;50.948;4.706;2022-10-26T06:23:04;15.60;99.90
24146;DHT22;12308;50.948;4.706;2022-10-26T06:30:49;15.40;99.90
24146;DHT22;12308;50.948;4.706;2022-10-26T06:33:16;15.30;99.90
24146;DHT22;12308;50.948;4.706;2022-10-26T06:38:18;15.30;99.90
24146;DHT22;12308;50.948;4.706;2022-10-26T06:40:48;15.40;99.90
24146;DHT22;12308;50.948;4.706;2022-10-26T06:43:26;15.50;99.90
24146;DHT22;12308;50.948;4.706;2022-10-26T06:46:19;15.50;99.90
24146;DHT22;12308;50.948;4.706;2022-10-26T06:52:12;15.80;99.90
24146;DHT22;12308;50.948;4.706;2022-10-26T06:54:50;15.80;99.90
24146;DHT22;12308;50.948;4.706;2022-10-26T06:57:18;15.90;99.90
24146;DHT22;12308;50.948;4.706;2022-10-26T06:59:48;15.90;99.90
24146;DHT22;12308;50.948;4.706;2022-10-26T07:02:14;16.00;99.90
24146;DHT22;12308;50.948;4.706;2022-10-26T07:04:41;16.00;99.90
24146;DHT22;12308;50.948;4.706;2022-10-26T07:07:13;15.90;99.90
24146;DHT22;12308;50.948;4.706;2022-10-26T07:09:39;15.90;99.90
24146;DHT22;12308;50.948;4.706;2022-10-26T07:12:05;15.80;99.90
24146;DHT22;12308;50.948;4.706;2022-10-26T07:14:30;15.90;99.90
24146;DHT22;12308;50.948;4.706;2022-10-26T07:16:56;15.90;99.90
24146;DHT22;12308;50.948;4.706;2022-10-26T07:19:22;15.80;99.90
24146;DHT22;12308;50.948;4.706;2022-10-26T07:21:48;15.80;99.90
24146;DHT22;12308;50.948;4.706;2022-10-26T07:24:13;15.80;99.90
24146;DHT22;12308;50.948;4.706;2022-10-26T07:26:39;15.90;99.90
24146;DHT22;12308;50.948;4.706;2022-10-26T07:29:05;15.90;99.90
24146;DHT22;12308;50.948;4.706;2022-10-26T07:31:30;15.90;99.90
24146;DHT22;12308;50.948;4.706;2022-10-26T07:33:56;16.00;99.90
24146;DHT22;12308;50.948;4.706;2022-10-26T07:36:22;16.10;99.90
24146;DHT22;12308;50.948;4.706;2022-10-26T07:38:51;16.20;99.90
24146;DHT22;12308;50.948;4.706;2022-10-26T07:41:17;16.10;99.90
24146;DHT22;12308;50.948;4.706;2022-10-26T07:43:43;16.30;99.90
24146;DHT22;12308;50.948;4.706;2022-10-26T07:46:11;16.30;99.90
24146;DHT22;12308;50.948;4.706;2022-10-26T07:48:37;16.40;99.90
24146;DHT22;12308;50.948;4.706;2022-10-26T07:51:04;16.40;99.90
24146;DHT22;12308;50.948;4.706;2022-10-26T07:53:30;16.30;99.90
24146;DHT22;12308;50.948;4.706;2022-10-26T07:55:56;16.30;99.90
24146;DHT22;12308;50.948;4.706;2022-10-26T07:58:22;16.40;99.90
24146;DHT22;12308;50.948;4.706;2022-10-26T08:00:51;16.40;99.90
24146;DHT22;12308;50.948;4.706;2022-10-26T08:03:18;16.40;99.90
24146;DHT22;12308;50.948;4.706;2022-10-26T08:05:48;16.40;99.90
24146;DHT22;12308;50.948;4.706;2022-10-26T08:08:16;16.60;99.90
24146;DHT22;12308;50.948;4.706;2022-10-26T08:10:43;16.50;99.90
24146;DHT22;12308;50.948;4.706;2022-10-26T08:13:10;16.60;99.90
24146;DHT22;12308;50.948;4.706;2022-10-26T08:15:35;16.60;99.90
24146;DHT22;12308;50.948;4.706;2022-10-26T08:18:01;16.60;99.90
24146;DHT22;12308;50.948;4.706;2022-10-26T08:20:27;16.70;99.90
24146;DHT22;12308;50.948;4.706;2022-10-26T08:22:55;16.80;99.90
24146;DHT22;12308;50.948;4.706;2022-10-26T08:25:21;16.90;99.90
24146;DHT22;12308;50.948;4.706;2022-10-26T08:27:47;16.90;99.90
24146;DHT22;12308;50.948;4.706;2022-10-26T08:30:12;17.00;99.90
24146;DHT22;12308;50.948;4.706;2022-10-26T08:32:38;17.20;99.90
24146;DHT22;12308;50.948;4.706;2022-10-26T08:35:04;17.20;99.90
24146;DHT22;12308;50.948;4.706;2022-10-26T08:37:30;17.20;99.90
24146;DHT22;12308;50.948;4.706;2022-10-26T08:39:56;17.30;99.90
24146;DHT22;12308;50.948;4.706;2022-10-26T08:42:32;17.30;99.90
24146;DHT22;12308;50.948;4.706;2022-10-26T08:45:04;17.40;99.90
24146;DHT22;12308;50.948;4.706;2022-10-26T08:47:43;17.40;99.90
24146;DHT22;12308;50.948;4.706;2022-10-26T08:50:31;17.50;99.90
24146;DHT22;12308;50.948;4.706;2022-10-26T08:53:16;17.50;99.90
24146;DHT22;12308;50.948;4.706;2022-10-26T08:55:53;17.70;99.90
24146;DHT22;12308;50.948;4.706;2022-10-26T08:58:25;17.70;99.90
24146;DHT22;12308;50.948;4.706;2022-10-26T09:00:52;17.70;99.90
24146;DHT22;12308;50.948;4.706;2022-10-26T09:03:18;17.70;99.90
24146;DHT22;12308;50.948;4.706;2022-10-26T09:08:23;17.80;99.90
24146;DHT22;12308;50.948;4.706;2022-10-26T09:11:21;17.90;99.90
24146;DHT22;12308;50.948;4.706;2022-10-26T09:24:28;18.50;99.90
24146;DHT22;12308;50.948;4.706;2022-10-26T09:27:01;18.50;99.90
24146;DHT22;12308;50.948;4.706;2022-10-26T09:29:38;18.40;99.90
24146;DHT22;12308;50.948;4.706;2022-10-26T09:32:12;18.50;99.90
24146;DHT22;12308;50.948;4.706;2022-10-26T09:34:58;18.70;99.90
24146;DHT22;12308;50.948;4.706;2022-10-26T09:37:36;18.70;99.90
24146;DHT22;12308;50.948;4.706;2022-10-26T09:45:34;18.80;99.90
24146;DHT22;12308;50.948;4.706;2022-10-26T09:48:06;18.90;99.90
24146;DHT22;12308;50.948;4.706;2022-10-26T09:50:36;18.90;99.90
24146;DHT22;12308;50.948;4.706;2022-10-26T09:53:03;18.90;99.90
24146;DHT22;12308;50.948;4.706;2022-10-26T09:55:30;19.00;99.90
24146;DHT22;12308;50.948;4.706;2022-10-26T09:58:00;19.10;99.90
24146;DHT22;12308;50.948;4.706;2022-10-26T10:00:26;19.20;99.90
24146;DHT22;12308;50.948;4.706;2022-10-26T10:02:54;19.00;99.90
24146;DHT22;12308;50.948;4.706;2022-10-26T10:05:30;18.90;99.90
24146;DHT22;12308;50.948;4.706;2022-10-26T10:08:18;19.00;99.90
24146;DHT22;12308;50.948;4.706;2022-10-26T10:11:04;18.90;99.90
24146;DHT22;12308;50.948;4.706;2022-10-26T10:13:33;19.00;99.90
24146;DHT22;12308;50.948;4.706;2022-10-26T10:16:09;19.00;99.90
24146;DHT22;12308;50.948;4.706;2022-10-26T10:18:36;19.20;99.90
24146;DHT22;12308;50.948;4.706;2022-10-26T10:21:04;19.20;99.90
24146;DHT22;12308;50.948;4.706;2022-10-26T10:23:50;19.20;99.90
24146;DHT22;12308;50.948;4.706;2022-10-26T10:26:19;19.40;99.90
24146;DHT22;12308;50.948;4.706;2022-10-26T10:29:08;19.50;99.90
24146;DHT22;12308;50.948;4.706;2022-10-26T10:31:40;19.50;99.90
24146;DHT22;12308;50.948;4.706;2022-10-26T10:34:16;19.40;99.90
24146;DHT22;12308;50.948;4.706;2022-10-26T10:36:42;19.30;99.90
24146;DHT22;12308;50.948;4.706;2022-10-26T10:42:10;19.40;99.90
24146;DHT22;12308;50.948;4.706;2022-10-26T10:44:38;19.50;99.90
24146;DHT22;12308;50.948;4.706;2022-10-26T10:47:05;19.50;99.90
24146;DHT22;12308;50.948;4.706;2022-10-26T10:49:32;19.60;99.90
24146;DHT22;12308;50.948;4.706;2022-10-26T10:51:58;19.60;99.90
24146;DHT22;12308;50.948;4.706;2022-10-26T10:54:38;19.70;99.90
24146;DHT22;12308;50.948;4.706;2022-10-26T11:00:02;19.60;99.90
24146;DHT22;12308;50.948;4.706;2022-10-26T11:11:26;19.60;99.90
24146;DHT22;12308;50.948;4.706;2022-10-26T11:14:02;19.60;99.90
24146;DHT22;12308;50.948;4.706;2022-10-26T11:16:34;19.70;99.90
24146;DHT22;12308;50.948;4.706;2022-10-26T11:19:19;19.70;99.90
24146;DHT22;12308;50.948;4.706;2022-10-26T11:21:51;19.50;99.90
24146;DHT22;12308;50.948;4.706;2022-10-26T11:29:53;19.80;99.90
24146;DHT22;12308;50.948;4.706;2022-10-26T11:40:56;19.90;99.90
24146;DHT22;12308;50.948;4.706;2022-10-26T11:43:42;20.00;99.90
24146;DHT22;12308;50.948;4.706;2022-10-26T11:46:35;20.10;99.90
24146;DHT22;12308;50.948;4.706;2022-10-26T11:49:31;20.10;99.90
24146;DHT22;12308;50.948;4.706;2022-10-26T11:52:07;20.00;99.90
24146;DHT22;12308;50.948;4.706;2022-10-26T11:54:53;20.10;99.90
24146;DHT22;12308;50.948;4.706;2022-10-26T11:57:23;20.10;99.90
24146;DHT22;12308;50.948;4.706;2022-10-26T12:00:04;20.00;99.90
24146;DHT22;12308;50.948;4.706;2022-10-26T12:02:32;20.00;99.90
24146;DHT22;12308;50.948;4.706;2022-10-26T12:05:04;20.00;99.90
24146;DHT22;12308;50.948;4.706;2022-10-26T12:07:35;20.00;99.90
24146;DHT22;12308;50.948;4.706;2022-10-26T12:10:06;20.00;99.90
24146;DHT22;12308;50.948;4.706;2022-10-26T12:12:43;20.10;99.90
24146;DHT22;12308;50.948;4.706;2022-10-26T12:15:26;20.10;99.90
24146;DHT22;12308;50.948;4.706;2022-10-26T12:18:02;20.10;99.90
24146;DHT22;12308;50.948;4.706;2022-10-26T12:23:10;20.40;99.90
24146;DHT22;12308;50.948;4.706;2022-10-26T12:25:37;20.40;99.90
24146;DHT22;12308;50.948;4.706;2022-10-26T12:28:02;20.40;99.90
24146;DHT22;12308;50.948;4.706;2022-10-26T12:30:33;20.30;99.90
24146;DHT22;12308;50.948;4.706;2022-10-26T12:33:00;20.20;99.90
24146;DHT22;12308;50.948;4.706;2022-10-26T12:35:53;20.20;99.90
24146;DHT22;12308;50.948;4.706;2022-10-26T12:48:47;20.20;99.90
24146;DHT22;12308;50.948;4.706;2022-10-26T12:56:55;20.20;99.90
24146;DHT22;12308;50.948;4.706;2022-10-26T13:05:20;20.20;99.90
24146;DHT22;12308;50.948;4.706;2022-10-26T13:07:49;20.30;99.90
24146;DHT22;12308;50.948;4.706;2022-10-26T13:10:19;20.40;99.90
24146;DHT22;12308;50.948;4.706;2022-10-26T13:12:52;20.40;99.90
24146;DHT22;12308;50.948;4.706;2022-10-26T13:15:29;20.40;99.90
24146;DHT22;12308;50.948;4.706;2022-10-26T13:20:26;20.50;99.90
24146;DHT22;12308;50.948;4.706;2022-10-26T13:22:52;20.40;99.90
24146;DHT22;12308;50.948;4.706;2022-10-26T13:25:29;20.40;99.90
24146;DHT22;12308;50.948;4.706;2022-10-26T13:28:04;20.60;99.90
24146;DHT22;12308;50.948;4.706;2022-10-26T13:33:00;20.60;99.90
24146;DHT22;12308;50.948;4.706;2022-10-26T13:35:26;20.60;99.90
24146;DHT22;12308;50.948;4.706;2022-10-26T13:37:54;20.60;99.90
24146;DHT22;12308;50.948;4.706;2022-10-26T13:40:25;20.60;99.90
24146;DHT22;12308;50.948;4.706;2022-10-26T13:42:57;20.60;99.90
24146;DHT22;12308;50.948;4.706;2022-10-26T13:45:41;20.60;99.90
24146;DHT22;12308;50.948;4.706;2022-10-26T13:48:13;20.60;99.90
24146;DHT22;12308;50.948;4.706;2022-10-26T13:50:55;20.60;99.90
24146;DHT22;12308;50.948;4.706;2022-10-26T13:53:24;20.50;99.90
24146;DHT22;12308;50.948;4.706;2022-10-26T13:56:00;20.50;99.90
24146;DHT22;12308;50.948;4.706;2022-10-26T13:58:37;20.50;99.90
24146;DHT22;12308;50.948;4.706;2022-10-26T14:03:37;20.70;99.90
24146;DHT22;12308;50.948;4.706;2022-10-26T14:08:57;20.60;99.90
24146;DHT22;12308;50.948;4.706;2022-10-26T14:11:35;20.70;99.90
24146;DHT22;12308;50.948;4.706;2022-10-26T14:14:02;20.70;99.90
24146;DHT22;12308;50.948;4.706;2022-10-26T14:16:31;20.80;99.90
24146;DHT22;12308;50.948;4.706;2022-10-26T14:18:57;20.80;99.90
24146;DHT22;12308;50.948;4.706;2022-10-26T14:21:23;20.80;99.90
24146;DHT22;12308;50.948;4.706;2022-10-26T14:24:00;20.80;99.90
24146;DHT22;12308;50.948;4.706;2022-10-26T14:26:41;20.90;99.90
24146;DHT22;12308;50.948;4.706;2022-10-26T14:29:16;20.80;99.90
24146;DHT22;12308;50.948;4.706;2022-10-26T14:31:42;21.00;99.90
24146;DHT22;12308;50.948;4.706;2022-10-26T14:34:09;21.00;99.90
24146;DHT22;12308;50.948;4.706;2022-10-26T14:36:44;20.90;99.90
24146;DHT22;12308;50.948;4.706;2022-10-26T14:41:50;20.80;99.90
24146;DHT22;12308;50.948;4.706;2022-10-26T14:44:21;20.70;99.90
24146;DHT22;12308;50.948;4.706;2022-10-26T14:46:48;20.70;99.90
24146;DHT22;12308;50.948;4.706;2022-10-26T14:49:22;20.70;99.90
24146;DHT22;12308;50.948;4.706;2022-10-26T14:51:54;20.80;99.90
24146;DHT22;12308;50.948;4.706;2022-10-26T14:54:25;20.70;99.90
24146;DHT22;12308;50.948;4.706;2022-10-26T14:56:52;20.60;99.90
24146;DHT22;12308;50.948;4.706;2022-10-26T14:59:27;20.60;99.90
24146;DHT22;12308;50.948;4.706;2022-10-26T15:04:41;20.80;99.90
24146;DHT22;12308;50.948;4.706;2022-10-26T15:07:08;20.80;99.90
24146;DHT22;12308;50.948;4.706;2022-10-26T15:12:05;21.00;99.90
24146;DHT22;12308;50.948;4.706;2022-10-26T15:14:31;20.90;99.90
24146;DHT22;12308;50.948;4.706;2022-10-26T15:16:58;20.90;99.90
24146;DHT22;12308;50.948;4.706;2022-10-26T15:19:25;20.90;99.90
24146;DHT22;12308;50.948;4.706;2022-10-26T15:21:52;21.00;99.90
24146;DHT22;12308;50.948;4.706;2022-10-26T15:24:37;20.90;99.90
24146;DHT22;12308;50.948;4.706;2022-10-26T15:27:10;20.90;99.90
24146;DHT22;12308;50.948;4.706;2022-10-26T15:32:14;20.60;99.90
24146;DHT22;12308;50.948;4.706;2022-10-26T15:34:45;20.50;99.90
24146;DHT22;12308;50.948;4.706;2022-10-26T15:37:10;20.40;99.90
24146;DHT22;12308;50.948;4.706;2022-10-26T15:39:36;20.30;99.90
24146;DHT22;12308;50.948;4.706;2022-10-26T15:42:02;20.30;99.90
24146;DHT22;12308;50.948;4.706;2022-10-26T15:44:27;20.30;99.90
24146;DHT22;12308;50.948;4.706;2022-10-26T15:47:00;20.30;99.90
24146;DHT22;12308;50.948;4.706;2022-10-26T15:49:25;20.30;99.90
24146;DHT22;12308;50.948;4.706;2022-10-26T15:51:51;20.20;99.90
24146;DHT22;12308;50.948;4.706;2022-10-26T15:54:17;20.10;99.90
24146;DHT22;12308;50.948;4.706;2022-10-26T15:56:43;20.00;99.90
24146;DHT22;12308;50.948;4.706;2022-10-26T15:59:27;19.90;99.90
24146;DHT22;12308;50.948;4.706;2022-10-26T16:01:52;19.90;99.90
24146;DHT22;12308;50.948;4.706;2022-10-26T16:04:18;19.80;99.90
24146;DHT22;12308;50.948;4.706;2022-10-26T16:06:44;19.70;99.90
24146;DHT22;12308;50.948;4.706;2022-10-26T16:09:14;19.60;99.90
24146;DHT22;12308;50.948;4.706;2022-10-26T16:11:41;19.80;99.90
24146;DHT22;12308;50.948;4.706;2022-10-26T16:14:07;19.70;99.90
24146;DHT22;12308;50.948;4.706;2022-10-26T16:16:33;19.60;99.90
24146;DHT22;12308;50.948;4.706;2022-10-26T16:18:58;19.50;99.90
24146;DHT22;12308;50.948;4.706;2022-10-26T16:21:24;19.40;99.90
24146;DHT22;12308;50.948;4.706;2022-10-26T16:23:52;19.30;99.90
24146;DHT22;12308;50.948;4.706;2022-10-26T16:26:19;19.20;99.90
24146;DHT22;12308;50.948;4.706;2022-10-26T16:28:44;19.20;99.90
24146;DHT22;12308;50.948;4.706;2022-10-26T16:31:13;19.20;99.90
24146;DHT22;12308;50.948;4.706;2022-10-26T16:33:39;19.20;99.90
24146;DHT22;12308;50.948;4.706;2022-10-26T16:36:05;19.10;99.90
24146;DHT22;12308;50.948;4.706;2022-10-26T16:38:32;19.00;99.90
24146;DHT22;12308;50.948;4.706;2022-10-26T16:41:06;19.00;99.90
24146;DHT22;12308;50.948;4.706;2022-10-26T16:43:35;18.90;99.90
24146;DHT22;12308;50.948;4.706;2022-10-26T16:46:09;18.90;99.90
24146;DHT22;12308;50.948;4.706;2022-10-26T16:48:36;18.80;99.90
24146;DHT22;12308;50.948;4.706;2022-10-26T16:51:10;18.70;99.90
24146;DHT22;12308;50.948;4.706;2022-10-26T16:53:37;18.70;99.90
24146;DHT22;12308;50.948;4.706;2022-10-26T16:56:08;18.60;99.90
24146;DHT22;12308;50.948;4.706;2022-10-26T16:58:35;18.60;99.90
24146;DHT22;12308;50.948;4.706;2022-10-26T17:01:01;18.50;99.90
24146;DHT22;12308;50.948;4.706;2022-10-26T17:03:26;18.40;99.90
24146;DHT22;12308;50.948;4.706;2022-10-26T17:05:59;18.40;99.90
24146;DHT22;12308;50.948;4.706;2022-10-26T17:08:26;18.30;99.90
24146;DHT22;12308;50.948;4.706;2022-10-26T17:10:53;18.30;99.90
24146;DHT22;12308;50.948;4.706;2022-10-26T17:13:20;18.30;99.90
24146;DHT22;12308;50.948;4.706;2022-10-26T17:15:46;18.20;99.90
24146;DHT22;12308;50.948;4.706;2022-10-26T17:18:11;18.20;99.90
24146;DHT22;12308;50.948;4.706;2022-10-26T17:20:38;18.10;99.90
24146;DHT22;12308;50.948;4.706;2022-10-26T17:23:04;18.10;99.90
24146;DHT22;12308;50.948;4.706;2022-10-26T17:25:34;18.10;99.90
24146;DHT22;12308;50.948;4.706;2022-10-26T17:28:00;18.00;99.90
24146;DHT22;12308;50.948;4.706;2022-10-26T17:30:27;18.00;99.90
24146;DHT22;12308;50.948;4.706;2022-10-26T17:32:53;18.00;99.90
24146;DHT22;12308;50.948;4.706;2022-10-26T17:35:19;18.00;99.90
24146;DHT22;12308;50.948;4.706;2022-10-26T17:37:45;18.10;99.90
24146;DHT22;12308;50.948;4.706;2022-10-26T17:40:11;18.10;99.90
24146;DHT22;12308;50.948;4.706;2022-10-26T17:42:36;18.10;99.90
24146;DHT22;12308;50.948;4.706;2022-10-26T17:45:02;18.10;99.90
24146;DHT22;12308;50.948;4.706;2022-10-26T17:47:28;18.00;99.90
24146;DHT22;12308;50.948;4.706;2022-10-26T17:49:54;18.00;99.90
24146;DHT22;12308;50.948;4.706;2022-10-26T17:52:19;18.00;99.90
24146;DHT22;12308;50.948;4.706;2022-10-26T17:54:49;17.90;99.90
24146;DHT22;12308;50.948;4.706;2022-10-26T17:57:14;17.90;99.90
24146;DHT22;12308;50.948;4.706;2022-10-26T17:59:40;18.00;99.90
24146;DHT22;12308;50.948;4.706;2022-10-26T18:02:09;18.10;99.90
24146;DHT22;12308;50.948;4.706;2022-10-26T18:04:34;18.20;99.90